sensor_id;sensor_type;location;lat;lon;timestamp;pressure;altitude;pressure_sealevel;temperature;humidity
9225;BME280;4647;48.072;11.616;2023-06-24T00:02:02;96175.22;;;16.96;67.83
9225;BME280;4647;48.072;11.616;2023-06-24T00:04:31;96169.41;;;16.94;68.37
9225;BME280;4647;48.072;11.616;2023-06-24T00:07:03;96174.72;;;16.85;68.78
9225;BME280;4647;48.072;11.616;2023-06-24T00:09:32;96163.59;;;16.92;68.19
9225;BME280;4647;48.072;11.616;2023-06-24T00:12:03;96170.88;;;16.82;68.75
9225;BME280;4647;48.072;11.616;2023-06-24T00:14:31;96162.75;;;16.79;68.54
9225;BME280;4647;48.072;11.616;2023-06-24T00:17:03;96163.50;;;16.79;68.19
9225;BME280;4647;48.072;11.616;2023-06-24T00:19:32;96158.31;;;16.85;68.02
9225;BME280;4647;48.072;11.616;2023-06-24T00:22:04;96161.38;;;16.71;68.31
9225;BME280;4647;48.072;11.616;2023-06-24T00:24:35;96159.22;;;16.78;68.00
9225;BME280;4647;48.072;11.616;2023-06-24T00:27:05;96168.91;;;16.67;68.24
9225;BME280;4647;48.072;11.616;2023-06-24T00:29:34;96159.31;;;16.75;68.55
9225;BME280;4647;48.072;11.616;2023-06-24T00:32:04;96165.22;;;16.73;68.37
9225;BME280;4647;48.072;11.616;2023-06-24T00:34:33;96170.28;;;16.75;68.41
9225;BME280;4647;48.072;11.616;2023-06-24T00:37:04;96139.59;;;16.67;68.16
9225;BME280;4647;48.072;11.616;2023-06-24T00:39:34;96170.38;;;16.87;68.19
9225;BME280;4647;48.072;11.616;2023-06-24T00:42:04;96124.09;;;16.44;68.30
9225;BME280;4647;48.072;11.616;2023-06-24T00:44:32;96155.38;;;16.76;68.45
9225;BME280;4647;48.072;11.616;2023-06-24T00:47:03;96157.78;;;16.57;68.73
9225;BME280;4647;48.072;11.616;2023-06-24T00:49:33;96152.31;;;16.57;68.32
9225;BME280;4647;48.072;11.616;2023-06-24T00:52:05;96138.09;;;16.63;68.81
9225;BME280;4647;48.072;11.616;2023-06-24T00:54:36;96110.41;;;16.44;68.50
9225;BME280;4647;48.072;11.616;2023-06-24T00:57:05;96127.25;;;16.59;68.43
9225;BME280;4647;48.072;11.616;2023-06-24T00:59:34;96137.56;;;16.51;68.55
9225;BME280;4647;48.072;11.616;2023-06-24T01:02:04;96126.72;;;16.48;68.97
9225;BME280;4647;48.072;11.616;2023-06-24T01:04:33;96135.19;;;16.53;68.64
9225;BME280;4647;48.072;11.616;2023-06-24T01:07:05;96132.09;;;16.51;68.80
9225;BME280;4647;48.072;11.616;2023-06-24T01:09:34;96121.69;;;16.46;68.64
9225;BME280;4647;48.072;11.616;2023-06-24T01:12:03;96126.22;;;16.53;67.98
9225;BME280;4647;48.072;11.616;2023-06-24T01:14:33;96128.97;;;16.37;68.74
9225;BME280;4647;48.072;11.616;2023-06-24T01:17:07;96106.19;;;16.23;68.63
9225;BME280;4647;48.072;11.616;2023-06-24T01:19:53;96138.69;;;16.38;68.71
9225;BME280;4647;48.072;11.616;2023-06-24T01:22:44;96130.75;;;16.43;68.60
9225;BME280;4647;48.072;11.616;2023-06-24T01:25:29;96108.34;;;16.32;68.96
9225;BME280;4647;48.072;11.616;2023-06-24T01:28:20;96130.16;;;16.36;69.49
9225;BME280;4647;48.072;11.616;2023-06-24T01:31:22;96132.88;;;16.36;68.99
9225;BME280;4647;48.072;11.616;2023-06-24T01:33:58;96126.78;;;16.28;68.98
9225;BME280;4647;48.072;11.616;2023-06-24T01:36:34;96108.00;;;16.30;69.03
9225;BME280;4647;48.072;11.616;2023-06-24T01:39:05;96115.88;;;16.44;68.75
9225;BME280;4647;48.072;11.616;2023-06-24T01:41:40;96105.53;;;16.19;69.36
9225;BME280;4647;48.072;11.616;2023-06-24T01:44:12;96094.75;;;16.12;69.35
9225;BME280;4647;48.072;11.616;2023-06-24T01:46:48;96096.63;;;16.15;69.41
9225;BME280;4647;48.072;11.616;2023-06-24T01:49:20;96109.88;;;16.49;68.92
9225;BME280;4647;48.072;11.616;2023-06-24T01:51:50;96107.31;;;16.42;69.14
9225;BME280;4647;48.072;11.616;2023-06-24T01:54:20;96106.97;;;16.24;69.46
9225;BME280;4647;48.072;11.616;2023-06-24T01:56:52;96110.56;;;16.21;69.56
9225;BME280;4647;48.072;11.616;2023-06-24T01:59:23;96110.44;;;16.08;70.07
9225;BME280;4647;48.072;11.616;2023-06-24T02:01:55;96112.81;;;15.90;70.61
9225;BME280;4647;48.072;11.616;2023-06-24T02:04:26;96114.22;;;15.78;71.14
9225;BME280;4647;48.072;11.616;2023-06-24T02:06:59;96110.22;;;15.83;70.60
9225;BME280;4647;48.072;11.616;2023-06-24T02:09:29;96108.63;;;15.85;70.66
9225;BME280;4647;48.072;11.616;2023-06-24T02:12:01;96116.78;;;16.05;69.70
9225;BME280;4647;48.072;11.616;2023-06-24T02:14:32;96109.84;;;16.01;70.25
9225;BME280;4647;48.072;11.616;2023-06-24T02:17:06;96109.50;;;15.99;69.82
9225;BME280;4647;48.072;11.616;2023-06-24T02:19:38;96114.78;;;15.89;69.82
9225;BME280;4647;48.072;11.616;2023-06-24T02:22:07;96101.00;;;15.77;70.00
9225;BME280;4647;48.072;11.616;2023-06-24T02:24:37;96126.34;;;15.97;69.41
9225;BME280;4647;48.072;11.616;2023-06-24T02:27:07;96118.09;;;15.81;69.71
9225;BME280;4647;48.072;11.616;2023-06-24T02:29:39;96116.97;;;15.78;69.73
9225;BME280;4647;48.072;11.616;2023-06-24T02:32:11;96104.56;;;15.54;70.08
9225;BME280;4647;48.072;11.616;2023-06-24T02:34:40;96117.91;;;15.72;70.13
9225;BME280;4647;48.072;11.616;2023-06-24T02:37:09;96107.72;;;15.52;70.82
9225;BME280;4647;48.072;11.616;2023-06-24T02:39:37;96120.19;;;15.73;70.36
9225;BME280;4647;48.072;11.616;2023-06-24T02:42:10;96118.41;;;15.67;70.88
9225;BME280;4647;48.072;11.616;2023-06-24T02:44:39;96116.09;;;15.65;70.61
9225;BME280;4647;48.072;11.616;2023-06-24T02:47:12;96119.63;;;15.82;70.10
9225;BME280;4647;48.072;11.616;2023-06-24T02:49:44;96128.72;;;15.95;69.53
9225;BME280;4647;48.072;11.616;2023-06-24T02:52:17;96131.31;;;15.82;69.80
9225;BME280;4647;48.072;11.616;2023-06-24T02:54:46;96126.91;;;15.88;69.45
9225;BME280;4647;48.072;11.616;2023-06-24T02:57:15;96117.41;;;15.77;69.72
9225;BME280;4647;48.072;11.616;2023-06-24T02:59:45;96137.19;;;16.01;69.06
9225;BME280;4647;48.072;11.616;2023-06-24T03:02:17;96135.13;;;16.05;68.49
9225;BME280;4647;48.072;11.616;2023-06-24T03:04:46;96117.41;;;15.77;68.60
9225;BME280;4647;48.072;11.616;2023-06-24T03:07:17;96151.00;;;15.93;69.04
9225;BME280;4647;48.072;11.616;2023-06-24T03:09:48;96150.34;;;16.06;69.09
9225;BME280;4647;48.072;11.616;2023-06-24T03:12:16;96151.88;;;16.07;68.52
9225;BME280;4647;48.072;11.616;2023-06-24T03:14:45;96155.13;;;16.02;68.55
9225;BME280;4647;48.072;11.616;2023-06-24T03:17:16;96151.34;;;15.95;69.32
9225;BME280;4647;48.072;11.616;2023-06-24T03:19:45;96154.59;;;15.90;69.05
9225;BME280;4647;48.072;11.616;2023-06-24T03:22:13;96147.25;;;16.04;68.44
9225;BME280;4647;48.072;11.616;2023-06-24T03:24:42;96164.66;;;16.13;68.10
9225;BME280;4647;48.072;11.616;2023-06-24T03:27:11;96159.13;;;16.33;67.72
9225;BME280;4647;48.072;11.616;2023-06-24T03:29:39;96146.78;;;16.25;68.03
9225;BME280;4647;48.072;11.616;2023-06-24T03:32:08;96160.81;;;16.27;67.91
9225;BME280;4647;48.072;11.616;2023-06-24T03:34:39;96148.13;;;16.01;69.13
9225;BME280;4647;48.072;11.616;2023-06-24T03:37:08;96165.72;;;16.00;69.44
9225;BME280;4647;48.072;11.616;2023-06-24T03:39:37;96160.50;;;16.05;68.66
9225;BME280;4647;48.072;11.616;2023-06-24T03:42:05;96159.38;;;16.03;68.91
9225;BME280;4647;48.072;11.616;2023-06-24T03:44:34;96130.25;;;15.96;69.25
9225;BME280;4647;48.072;11.616;2023-06-24T03:47:02;96170.91;;;16.30;68.77
9225;BME280;4647;48.072;11.616;2023-06-24T03:49:31;96167.13;;;16.24;68.92
9225;BME280;4647;48.072;11.616;2023-06-24T03:52:03;96166.63;;;16.29;68.66
9225;BME280;4647;48.072;11.616;2023-06-24T03:54:34;96165.16;;;16.24;68.94
9225;BME280;4647;48.072;11.616;2023-06-24T03:57:03;96169.78;;;16.27;68.23
9225;BME280;4647;48.072;11.616;2023-06-24T03:59:32;96176.94;;;16.21;68.69
9225;BME280;4647;48.072;11.616;2023-06-24T04:02:00;96173.91;;;16.36;68.03
9225;BME280;4647;48.072;11.616;2023-06-24T04:04:28;96175.38;;;16.40;68.22
9225;BME280;4647;48.072;11.616;2023-06-24T04:06:57;96113.78;;;16.00;68.30
9225;BME280;4647;48.072;11.616;2023-06-24T04:09:31;96176.81;;;16.45;68.04
9225;BME280;4647;48.072;11.616;2023-06-24T04:11:59;96182.22;;;16.48;67.93
9225;BME280;4647;48.072;11.616;2023-06-24T04:14:28;96177.59;;;16.62;67.96
9225;BME280;4647;48.072;11.616;2023-06-24T04:16:57;96181.88;;;16.63;67.70
9225;BME280;4647;48.072;11.616;2023-06-24T04:19:26;96175.66;;;16.78;67.29
9225;BME280;4647;48.072;11.616;2023-06-24T04:21:55;96178.13;;;17.05;66.63
9225;BME280;4647;48.072;11.616;2023-06-24T04:24:23;96177.72;;;17.36;65.40
9225;BME280;4647;48.072;11.616;2023-06-24T04:26:54;96175.22;;;17.12;66.00
9225;BME280;4647;48.072;11.616;2023-06-24T04:29:23;96181.00;;;17.31;65.41
9225;BME280;4647;48.072;11.616;2023-06-24T04:31:54;96180.94;;;17.18;65.72
9225;BME280;4647;48.072;11.616;2023-06-24T04:34:22;96178.94;;;17.35;64.77
9225;BME280;4647;48.072;11.616;2023-06-24T04:36:50;96180.28;;;17.43;65.20
9225;BME280;4647;48.072;11.616;2023-06-24T04:39:19;96171.84;;;17.50;64.66
9225;BME280;4647;48.072;11.616;2023-06-24T04:41:47;96187.63;;;17.46;64.45
9225;BME280;4647;48.072;11.616;2023-06-24T04:44:18;96179.47;;;17.30;65.38
9225;BME280;4647;48.072;11.616;2023-06-24T04:46:47;96184.94;;;17.30;65.53
9225;BME280;4647;48.072;11.616;2023-06-24T04:49:18;96171.06;;;17.37;64.76
9225;BME280;4647;48.072;11.616;2023-06-24T04:51:47;96192.16;;;17.53;64.73
9225;BME280;4647;48.072;11.616;2023-06-24T04:54:15;96197.25;;;17.67;64.16
9225;BME280;4647;48.072;11.616;2023-06-24T04:56:44;96191.50;;;17.77;63.95
9225;BME280;4647;48.072;11.616;2023-06-24T04:59:13;96187.25;;;17.60;63.91
9225;BME280;4647;48.072;11.616;2023-06-24T05:01:44;96193.50;;;17.77;64.23
9225;BME280;4647;48.072;11.616;2023-06-24T05:04:13;96194.31;;;17.74;63.93
9225;BME280;4647;48.072;11.616;2023-06-24T05:06:41;96196.19;;;18.06;63.43
9225;BME280;4647;48.072;11.616;2023-06-24T05:09:10;96193.72;;;17.95;63.43
9225;BME280;4647;48.072;11.616;2023-06-24T05:11:39;96194.78;;;18.27;62.13
9225;BME280;4647;48.072;11.616;2023-06-24T05:14:07;96180.59;;;18.03;62.17
9225;BME280;4647;48.072;11.616;2023-06-24T05:16:36;96204.53;;;18.15;62.60
9225;BME280;4647;48.072;11.616;2023-06-24T05:19:07;96197.63;;;18.36;62.12
9225;BME280;4647;48.072;11.616;2023-06-24T05:21:36;96203.47;;;18.25;62.47
9225;BME280;4647;48.072;11.616;2023-06-24T05:24:05;96200.81;;;18.22;62.67
9225;BME280;4647;48.072;11.616;2023-06-24T05:26:33;96201.16;;;18.24;62.35
9225;BME280;4647;48.072;11.616;2023-06-24T05:29:02;96204.78;;;18.33;62.76
9225;BME280;4647;48.072;11.616;2023-06-24T05:31:30;96208.25;;;19.23;59.96
9225;BME280;4647;48.072;11.616;2023-06-24T05:33:59;96202.19;;;20.06;57.27
9225;BME280;4647;48.072;11.616;2023-06-24T05:36:31;96211.47;;;20.00;56.90
9225;BME280;4647;48.072;11.616;2023-06-24T05:39:00;96210.44;;;19.62;58.06
9225;BME280;4647;48.072;11.616;2023-06-24T05:41:30;96206.88;;;19.40;58.77
9225;BME280;4647;48.072;11.616;2023-06-24T05:44:02;96198.56;;;19.66;57.97
9225;BME280;4647;48.072;11.616;2023-06-24T05:46:31;96218.19;;;19.99;57.36
9225;BME280;4647;48.072;11.616;2023-06-24T05:48:59;96204.31;;;20.02;56.54
9225;BME280;4647;48.072;11.616;2023-06-24T05:51:31;96205.38;;;20.27;55.91
9225;BME280;4647;48.072;11.616;2023-06-24T05:53:59;96217.47;;;19.63;57.36
9225;BME280;4647;48.072;11.616;2023-06-24T05:56:29;96225.91;;;20.35;56.17
9225;BME280;4647;48.072;11.616;2023-06-24T05:58:57;96225.28;;;19.87;56.68
9225;BME280;4647;48.072;11.616;2023-06-24T06:01:27;96225.03;;;20.38;55.43
9225;BME280;4647;48.072;11.616;2023-06-24T06:03:55;96225.03;;;20.69;54.27
9225;BME280;4647;48.072;11.616;2023-06-24T06:06:23;96222.56;;;20.40;55.11
9225;BME280;4647;48.072;11.616;2023-06-24T06:08:56;96219.28;;;21.34;52.57
9225;BME280;4647;48.072;11.616;2023-06-24T06:11:24;96218.13;;;21.23;52.94
9225;BME280;4647;48.072;11.616;2023-06-24T06:13:53;96218.31;;;20.79;54.35
9225;BME280;4647;48.072;11.616;2023-06-24T06:16:21;96221.25;;;21.43;51.69
9225;BME280;4647;48.072;11.616;2023-06-24T06:18:50;96232.38;;;20.72;54.04
9225;BME280;4647;48.072;11.616;2023-06-24T06:21:19;96199.78;;;20.70;53.75
9225;BME280;4647;48.072;11.616;2023-06-24T06:23:47;96215.56;;;21.28;53.20
9225;BME280;4647;48.072;11.616;2023-06-24T06:26:18;96222.84;;;21.04;51.90
9225;BME280;4647;48.072;11.616;2023-06-24T06:28:47;96225.50;;;20.76;53.50
9225;BME280;4647;48.072;11.616;2023-06-24T06:31:16;96228.53;;;21.19;52.34
9225;BME280;4647;48.072;11.616;2023-06-24T06:33:44;96222.72;;;21.07;52.84
9225;BME280;4647;48.072;11.616;2023-06-24T06:36:13;96217.13;;;21.84;51.13
9225;BME280;4647;48.072;11.616;2023-06-24T06:38:42;96216.81;;;22.00;50.68
9225;BME280;4647;48.072;11.616;2023-06-24T06:41:10;96221.13;;;22.01;50.35
9225;BME280;4647;48.072;11.616;2023-06-24T06:43:41;96224.81;;;22.08;49.75
9225;BME280;4647;48.072;11.616;2023-06-24T06:46:09;96219.00;;;22.05;50.47
9225;BME280;4647;48.072;11.616;2023-06-24T06:48:38;96221.91;;;21.84;50.22
9225;BME280;4647;48.072;11.616;2023-06-24T06:51:09;96229.34;;;22.38;48.43
9225;BME280;4647;48.072;11.616;2023-06-24T06:53:38;96201.66;;;21.68;49.67
9225;BME280;4647;48.072;11.616;2023-06-24T06:56:08;96233.50;;;21.51;51.01
9225;BME280;4647;48.072;11.616;2023-06-24T06:58:36;96218.03;;;21.99;49.25
9225;BME280;4647;48.072;11.616;2023-06-24T07:01:08;96225.41;;;22.12;49.15
9225;BME280;4647;48.072;11.616;2023-06-24T07:03:36;96230.94;;;21.57;49.59
9225;BME280;4647;48.072;11.616;2023-06-24T07:06:04;96215.75;;;22.07;48.03
9225;BME280;4647;48.072;11.616;2023-06-24T07:08:33;96220.59;;;22.49;46.86
9225;BME280;4647;48.072;11.616;2023-06-24T07:11:02;96221.06;;;22.38;46.69
9225;BME280;4647;48.072;11.616;2023-06-24T07:13:31;96223.38;;;22.30;46.25
9225;BME280;4647;48.072;11.616;2023-06-24T07:15:59;96224.88;;;22.92;44.81
9225;BME280;4647;48.072;11.616;2023-06-24T07:18:30;96220.41;;;22.52;45.71
9225;BME280;4647;48.072;11.616;2023-06-24T07:20:59;96214.75;;;22.89;42.84
9225;BME280;4647;48.072;11.616;2023-06-24T07:23:28;96215.09;;;22.30;44.45
9225;BME280;4647;48.072;11.616;2023-06-24T07:25:57;96212.34;;;22.30;44.48
9225;BME280;4647;48.072;11.616;2023-06-24T07:28:25;96225.72;;;23.07;43.03
9225;BME280;4647;48.072;11.616;2023-06-24T07:30:53;96201.06;;;23.18;43.16
9225;BME280;4647;48.072;11.616;2023-06-24T07:33:22;96198.53;;;22.73;43.99
9225;BME280;4647;48.072;11.616;2023-06-24T07:35:53;96218.16;;;22.84;44.59
9225;BME280;4647;48.072;11.616;2023-06-24T07:38:22;96217.91;;;23.06;44.34
9225;BME280;4647;48.072;11.616;2023-06-24T07:40:50;96222.75;;;22.87;44.29
9225;BME280;4647;48.072;11.616;2023-06-24T07:43:18;96200.53;;;22.81;43.61
9225;BME280;4647;48.072;11.616;2023-06-24T07:45:47;96208.97;;;22.78;43.18
9225;BME280;4647;48.072;11.616;2023-06-24T07:48:15;96217.91;;;23.30;43.36
9225;BME280;4647;48.072;11.616;2023-06-24T07:50:47;96227.81;;;23.45;42.47
9225;BME280;4647;48.072;11.616;2023-06-24T07:53:18;96220.19;;;23.55;42.35
9225;BME280;4647;48.072;11.616;2023-06-24T07:55:46;96211.06;;;23.64;41.77
9225;BME280;4647;48.072;11.616;2023-06-24T07:58:15;96209.66;;;24.51;40.27
9225;BME280;4647;48.072;11.616;2023-06-24T08:00:46;96218.38;;;24.94;39.10
9225;BME280;4647;48.072;11.616;2023-06-24T08:03:14;96221.16;;;25.29;38.06
9225;BME280;4647;48.072;11.616;2023-06-24T08:05:43;96219.78;;;24.54;39.07
9225;BME280;4647;48.072;11.616;2023-06-24T08:08:12;96226.69;;;23.52;40.37
9225;BME280;4647;48.072;11.616;2023-06-24T08:10:44;96226.03;;;23.33;41.46
9225;BME280;4647;48.072;11.616;2023-06-24T08:13:12;96240.03;;;23.53;41.17
9225;BME280;4647;48.072;11.616;2023-06-24T08:15:40;96230.03;;;23.32;39.98
9225;BME280;4647;48.072;11.616;2023-06-24T08:18:09;96226.16;;;22.82;40.22
9225;BME280;4647;48.072;11.616;2023-06-24T08:20:38;96233.34;;;22.88;40.12
9225;BME280;4647;48.072;11.616;2023-06-24T08:23:06;96230.09;;;22.48;41.53
9225;BME280;4647;48.072;11.616;2023-06-24T08:25:36;96227.50;;;23.19;39.64
9225;BME280;4647;48.072;11.616;2023-06-24T08:28:07;96221.63;;;23.50;39.06
9225;BME280;4647;48.072;11.616;2023-06-24T08:31:03;96212.88;;;22.53;41.14
9225;BME280;4647;48.072;11.616;2023-06-24T08:33:46;96216.31;;;22.39;41.08
9225;BME280;4647;48.072;11.616;2023-06-24T08:36:15;96227.84;;;23.36;39.35
9225;BME280;4647;48.072;11.616;2023-06-24T08:38:43;96222.59;;;23.38;39.26
9225;BME280;4647;48.072;11.616;2023-06-24T08:41:14;96218.19;;;22.75;40.55
9225;BME280;4647;48.072;11.616;2023-06-24T08:50:11;96218.69;;;23.93;37.92
9225;BME280;4647;48.072;11.616;2023-06-24T08:52:42;96213.56;;;23.62;38.87
9225;BME280;4647;48.072;11.616;2023-06-24T08:55:16;96214.38;;;23.53;38.81
9225;BME280;4647;48.072;11.616;2023-06-24T08:57:45;96212.72;;;22.47;40.57
9225;BME280;4647;48.072;11.616;2023-06-24T09:00:15;96211.44;;;22.15;41.90
9225;BME280;4647;48.072;11.616;2023-06-24T09:02:45;96213.44;;;23.56;38.87
9225;BME280;4647;48.072;11.616;2023-06-24T09:05:18;96218.59;;;24.02;38.19
9225;BME280;4647;48.072;11.616;2023-06-24T09:07:46;96219.84;;;23.62;39.14
9225;BME280;4647;48.072;11.616;2023-06-24T09:10:29;96219.13;;;23.52;38.99
9225;BME280;4647;48.072;11.616;2023-06-24T09:12:59;96218.50;;;23.96;38.00
9225;BME280;4647;48.072;11.616;2023-06-24T09:15:30;96219.56;;;23.60;38.43
9225;BME280;4647;48.072;11.616;2023-06-24T09:18:00;96220.25;;;22.98;39.68
9225;BME280;4647;48.072;11.616;2023-06-24T09:20:32;96219.41;;;22.83;40.22
9225;BME280;4647;48.072;11.616;2023-06-24T09:23:05;96219.97;;;23.20;39.14
9225;BME280;4647;48.072;11.616;2023-06-24T09:25:33;96209.22;;;22.89;39.41
9225;BME280;4647;48.072;11.616;2023-06-24T09:28:02;96208.78;;;22.39;39.32
9225;BME280;4647;48.072;11.616;2023-06-24T09:30:31;96211.75;;;22.17;40.26
9225;BME280;4647;48.072;11.616;2023-06-24T09:32:59;96201.19;;;21.70;41.64
9225;BME280;4647;48.072;11.616;2023-06-24T09:35:27;96210.97;;;22.17;41.02
9225;BME280;4647;48.072;11.616;2023-06-24T09:37:58;96199.84;;;22.53;40.55
9225;BME280;4647;48.072;11.616;2023-06-24T09:40:27;96211.03;;;23.01;39.82
9225;BME280;4647;48.072;11.616;2023-06-24T09:42:56;96206.66;;;22.76;39.43
9225;BME280;4647;48.072;11.616;2023-06-24T09:45:27;96200.16;;;22.88;38.57
9225;BME280;4647;48.072;11.616;2023-06-24T09:47:57;96199.97;;;23.25;38.34
9225;BME280;4647;48.072;11.616;2023-06-24T09:50:26;96196.06;;;23.32;37.39
9225;BME280;4647;48.072;11.616;2023-06-24T09:52:58;96198.25;;;23.04;37.33
9225;BME280;4647;48.072;11.616;2023-06-24T09:55:27;96176.44;;;23.30;37.42
9225;BME280;4647;48.072;11.616;2023-06-24T09:57:56;96188.66;;;22.90;38.64
9225;BME280;4647;48.072;11.616;2023-06-24T10:00:25;96189.78;;;23.07;37.95
9225;BME280;4647;48.072;11.616;2023-06-24T10:02:54;96180.91;;;23.27;38.11
9225;BME280;4647;48.072;11.616;2023-06-24T10:05:23;96188.53;;;23.32;37.57
9225;BME280;4647;48.072;11.616;2023-06-24T10:07:52;96179.16;;;23.77;36.81
9225;BME280;4647;48.072;11.616;2023-06-24T10:10:23;96169.88;;;23.66;37.94
9225;BME280;4647;48.072;11.616;2023-06-24T10:12:53;96168.88;;;23.93;37.52
9225;BME280;4647;48.072;11.616;2023-06-24T10:15:21;96161.81;;;24.21;37.10
9225;BME280;4647;48.072;11.616;2023-06-24T10:17:50;96165.34;;;24.22;36.25
9225;BME280;4647;48.072;11.616;2023-06-24T10:20:24;96153.69;;;24.03;35.55
9225;BME280;4647;48.072;11.616;2023-06-24T10:22:53;96175.84;;;24.03;36.13
9225;BME280;4647;48.072;11.616;2023-06-24T10:25:35;96166.78;;;24.17;35.97
9225;BME280;4647;48.072;11.616;2023-06-24T10:28:04;96158.84;;;24.10;36.13
9225;BME280;4647;48.072;11.616;2023-06-24T10:30:33;96154.22;;;23.63;35.68
9225;BME280;4647;48.072;11.616;2023-06-24T10:33:01;96151.41;;;24.45;34.69
9225;BME280;4647;48.072;11.616;2023-06-24T10:35:30;96164.56;;;24.21;35.41
9225;BME280;4647;48.072;11.616;2023-06-24T10:38:01;96149.69;;;24.33;34.83
9225;BME280;4647;48.072;11.616;2023-06-24T10:40:39;96154.38;;;23.98;35.20
9225;BME280;4647;48.072;11.616;2023-06-24T10:43:28;96148.72;;;24.07;35.64
9225;BME280;4647;48.072;11.616;2023-06-24T10:45:58;96155.59;;;23.82;36.38
9225;BME280;4647;48.072;11.616;2023-06-24T10:48:27;96141.91;;;23.64;37.22
9225;BME280;4647;48.072;11.616;2023-06-24T10:50:56;96136.78;;;23.09;37.21
9225;BME280;4647;48.072;11.616;2023-06-24T10:53:24;96140.78;;;23.32;37.44
9225;BME280;4647;48.072;11.616;2023-06-24T10:55:57;96137.19;;;23.16;37.78
9225;BME280;4647;48.072;11.616;2023-06-24T10:58:26;96144.91;;;23.12;36.96
9225;BME280;4647;48.072;11.616;2023-06-24T11:01:08;96137.97;;;23.55;37.06
9225;BME280;4647;48.072;11.616;2023-06-24T11:03:40;96129.44;;;23.98;36.14
9225;BME280;4647;48.072;11.616;2023-06-24T11:06:10;96132.88;;;23.78;36.19
9225;BME280;4647;48.072;11.616;2023-06-24T11:08:43;96134.50;;;23.84;36.55
9225;BME280;4647;48.072;11.616;2023-06-24T11:11:21;96133.25;;;23.08;37.34
9225;BME280;4647;48.072;11.616;2023-06-24T11:13:49;96124.03;;;22.54;39.10
9225;BME280;4647;48.072;11.616;2023-06-24T11:16:22;96120.63;;;22.59;39.52
9225;BME280;4647;48.072;11.616;2023-06-24T11:18:51;96127.38;;;22.91;37.75
9225;BME280;4647;48.072;11.616;2023-06-24T11:21:19;96123.91;;;23.06;38.11
9225;BME280;4647;48.072;11.616;2023-06-24T11:23:47;96121.69;;;22.95;38.30
9225;BME280;4647;48.072;11.616;2023-06-24T11:26:16;96115.03;;;23.02;38.17
9225;BME280;4647;48.072;11.616;2023-06-24T11:28:47;96105.16;;;23.48;37.38
9225;BME280;4647;48.072;11.616;2023-06-24T11:31:17;96104.63;;;24.03;36.57
9225;BME280;4647;48.072;11.616;2023-06-24T11:33:48;96104.25;;;23.66;36.66
9225;BME280;4647;48.072;11.616;2023-06-24T11:36:17;96096.59;;;24.05;36.29
9225;BME280;4647;48.072;11.616;2023-06-24T11:38:46;96101.78;;;23.68;36.90
9225;BME280;4647;48.072;11.616;2023-06-24T11:41:14;96087.59;;;24.40;35.66
9225;BME280;4647;48.072;11.616;2023-06-24T11:43:47;96084.28;;;24.21;36.20
9225;BME280;4647;48.072;11.616;2023-06-24T11:46:20;96078.03;;;25.37;34.84
9225;BME280;4647;48.072;11.616;2023-06-24T11:48:49;96079.03;;;25.60;34.55
9225;BME280;4647;48.072;11.616;2023-06-24T11:51:19;96076.44;;;26.77;32.30
9225;BME280;4647;48.072;11.616;2023-06-24T11:53:51;96073.97;;;26.16;32.39
9225;BME280;4647;48.072;11.616;2023-06-24T11:56:33;96059.59;;;26.17;32.37
9225;BME280;4647;48.072;11.616;2023-06-24T11:59:06;96065.75;;;25.69;32.34
9225;BME280;4647;48.072;11.616;2023-06-24T12:01:35;96055.19;;;25.74;32.04
9225;BME280;4647;48.072;11.616;2023-06-24T12:04:10;96064.84;;;26.41;31.61
9225;BME280;4647;48.072;11.616;2023-06-24T12:06:39;96051.59;;;25.93;31.99
9225;BME280;4647;48.072;11.616;2023-06-24T12:09:07;96056.56;;;25.58;32.60
9225;BME280;4647;48.072;11.616;2023-06-24T12:11:37;96059.72;;;25.25;32.32
9225;BME280;4647;48.072;11.616;2023-06-24T12:14:09;96053.84;;;24.76;33.39
9225;BME280;4647;48.072;11.616;2023-06-24T12:16:38;96047.13;;;24.13;34.01
9225;BME280;4647;48.072;11.616;2023-06-24T12:19:07;96051.31;;;24.23;34.20
9225;BME280;4647;48.072;11.616;2023-06-24T12:21:37;96043.97;;;24.55;34.44
9225;BME280;4647;48.072;11.616;2023-06-24T12:24:06;96048.66;;;24.29;34.14
9225;BME280;4647;48.072;11.616;2023-06-24T12:26:35;96046.88;;;23.96;34.23
9225;BME280;4647;48.072;11.616;2023-06-24T12:29:04;96040.66;;;24.16;33.45
9225;BME280;4647;48.072;11.616;2023-06-24T12:31:35;96036.72;;;24.58;32.87
9225;BME280;4647;48.072;11.616;2023-06-24T12:34:04;96022.28;;;24.33;33.95
9225;BME280;4647;48.072;11.616;2023-06-24T12:36:33;96026.09;;;24.56;33.65
9225;BME280;4647;48.072;11.616;2023-06-24T12:39:01;96014.97;;;24.51;33.63
9225;BME280;4647;48.072;11.616;2023-06-24T12:41:30;96020.25;;;24.69;33.25
9225;BME280;4647;48.072;11.616;2023-06-24T12:44:01;96022.38;;;24.79;32.50
9225;BME280;4647;48.072;11.616;2023-06-24T12:46:30;96012.97;;;25.38;30.72
9225;BME280;4647;48.072;11.616;2023-06-24T12:49:01;96009.44;;;25.12;31.95
9225;BME280;4647;48.072;11.616;2023-06-24T12:51:30;96009.00;;;25.45;30.87
9225;BME280;4647;48.072;11.616;2023-06-24T12:53:58;96012.00;;;25.67;30.52
9225;BME280;4647;48.072;11.616;2023-06-24T12:56:33;96014.84;;;25.52;30.66
9225;BME280;4647;48.072;11.616;2023-06-24T12:59:06;95998.13;;;25.41;31.81
9225;BME280;4647;48.072;11.616;2023-06-24T13:01:35;96004.59;;;25.32;32.06
9225;BME280;4647;48.072;11.616;2023-06-24T13:04:06;96005.34;;;25.33;31.59
9225;BME280;4647;48.072;11.616;2023-06-24T13:06:37;96006.38;;;24.89;32.06
9225;BME280;4647;48.072;11.616;2023-06-24T13:09:07;96003.34;;;24.87;32.61
9225;BME280;4647;48.072;11.616;2023-06-24T13:11:37;96005.19;;;24.75;32.90
9225;BME280;4647;48.072;11.616;2023-06-24T13:14:06;95998.72;;;24.84;32.63
9225;BME280;4647;48.072;11.616;2023-06-24T13:16:37;95995.63;;;25.17;32.32
9225;BME280;4647;48.072;11.616;2023-06-24T13:19:10;95996.69;;;24.99;33.09
9225;BME280;4647;48.072;11.616;2023-06-24T13:21:39;95985.31;;;25.23;31.81
9225;BME280;4647;48.072;11.616;2023-06-24T13:24:11;95989.53;;;26.02;30.43
9225;BME280;4647;48.072;11.616;2023-06-24T13:26:40;95996.94;;;25.53;31.80
9225;BME280;4647;48.072;11.616;2023-06-24T13:29:11;95988.06;;;24.77;32.78
9225;BME280;4647;48.072;11.616;2023-06-24T13:31:39;95989.03;;;24.94;32.23
9225;BME280;4647;48.072;11.616;2023-06-24T13:34:12;95991.94;;;25.05;31.70